sensor_id;sensor_type;location;lat;lon;timestamp;P1;durP1;ratioP1;P2;durP2;ratioP2
23670;SDS011;12012;51.998;7.614;2023-04-01T00:01:19;6.65;;;2.97;;
23670;SDS011;12012;51.998;7.614;2023-04-01T00:03:45;12.82;;;3.35;;
23670;SDS011;12012;51.998;7.614;2023-04-01T00:06:12;7.35;;;2.83;;
23670;SDS011;12012;51.998;7.614;2023-04-01T00:08:39;11.07;;;3.80;;
23670;SDS011;12012;51.998;7.614;2023-04-01T00:11:05;9.10;;;3.10;;
23670;SDS011;12012;51.998;7.614;2023-04-01T00:13:30;11.63;;;2.92;;
23670;SDS011;12012;51.998;7.614;2023-04-01T00:15:57;6.10;;;2.95;;
23670;SDS011;12012;51.998;7.614;2023-04-01T00:18:23;6.93;;;3.30;;
23670;SDS011;12012;51.998;7.614;2023-04-01T00:20:50;7.90;;;3.20;;
23670;SDS011;12012;51.998;7.614;2023-04-01T00:23:16;11.60;;;2.78;;
23670;SDS011;12012;51.998;7.614;2023-04-01T00:25:43;9.05;;;2.53;;
23670;SDS011;12012;51.998;7.614;2023-04-01T00:28:11;7.65;;;2.80;;
23670;SDS011;12012;51.998;7.614;2023-04-01T00:30:37;9.68;;;3.15;;
23670;SDS011;12012;51.998;7.614;2023-04-01T00:33:03;8.48;;;2.75;;
23670;SDS011;12012;51.998;7.614;2023-04-01T00:35:29;7.70;;;2.92;;
23670;SDS011;12012;51.998;7.614;2023-04-01T00:37:54;7.30;;;3.03;;
23670;SDS011;12012;51.998;7.614;2023-04-01T00:43:03;8.10;;;3.45;;
23670;SDS011;12012;51.998;7.614;2023-04-01T00:48:06;7.18;;;3.25;;
23670;SDS011;12012;51.998;7.614;2023-04-01T00:50:35;12.25;;;3.17;;
23670;SDS011;12012;51.998;7.614;2023-04-01T00:53:03;6.63;;;3.13;;
23670;SDS011;12012;51.998;7.614;2023-04-01T00:55:32;9.45;;;3.58;;
23670;SDS011;12012;51.998;7.614;2023-04-01T00:58:02;6.75;;;3.70;;
23670;SDS011;12012;51.998;7.614;2023-04-01T01:00:30;12.45;;;3.70;;
23670;SDS011;12012;51.998;7.614;2023-04-01T01:02:56;15.05;;;3.72;;
23670;SDS011;12012;51.998;7.614;2023-04-01T01:05:23;7.18;;;3.55;;
23670;SDS011;12012;51.998;7.614;2023-04-01T01:08:02;8.85;;;3.90;;
23670;SDS011;12012;51.998;7.614;2023-04-01T01:10:36;11.48;;;4.30;;
23670;SDS011;12012;51.998;7.614;2023-04-01T01:13:11;6.85;;;3.97;;
23670;SDS011;12012;51.998;7.614;2023-04-01T01:16:03;7.47;;;4.20;;
23670;SDS011;12012;51.998;7.614;2023-04-01T01:18:49;10.10;;;4.53;;
23670;SDS011;12012;51.998;7.614;2023-04-01T01:24:35;8.25;;;4.38;;
23670;SDS011;12012;51.998;7.614;2023-04-01T01:27:28;7.78;;;4.53;;
23670;SDS011;12012;51.998;7.614;2023-04-01T01:38:05;9.32;;;5.10;;
23670;SDS011;12012;51.998;7.614;2023-04-01T01:40:34;9.35;;;4.60;;
23670;SDS011;12012;51.998;7.614;2023-04-01T01:43:05;8.00;;;4.82;;
23670;SDS011;12012;51.998;7.614;2023-04-01T01:45:36;8.45;;;4.57;;
23670;SDS011;12012;51.998;7.614;2023-04-01T01:48:05;8.52;;;4.82;;
23670;SDS011;12012;51.998;7.614;2023-04-01T01:50:33;8.88;;;5.22;;
23670;SDS011;12012;51.998;7.614;2023-04-01T01:53:04;7.32;;;5.25;;
23670;SDS011;12012;51.998;7.614;2023-04-01T01:58:00;7.95;;;4.22;;
23670;SDS011;12012;51.998;7.614;2023-04-01T02:00:32;7.63;;;4.85;;
23670;SDS011;12012;51.998;7.614;2023-04-01T02:02:59;6.22;;;4.55;;
23670;SDS011;12012;51.998;7.614;2023-04-01T02:05:26;7.00;;;5.00;;
23670;SDS011;12012;51.998;7.614;2023-04-01T02:08:14;7.70;;;4.95;;
23670;SDS011;12012;51.998;7.614;2023-04-01T02:10:45;7.95;;;4.88;;
23670;SDS011;12012;51.998;7.614;2023-04-01T02:13:34;7.88;;;4.57;;
23670;SDS011;12012;51.998;7.614;2023-04-01T02:16:11;7.28;;;4.50;;
23670;SDS011;12012;51.998;7.614;2023-04-01T02:18:48;8.45;;;4.60;;
23670;SDS011;12012;51.998;7.614;2023-04-01T02:21:16;8.02;;;4.63;;
23670;SDS011;12012;51.998;7.614;2023-04-01T02:23:44;7.35;;;4.82;;
23670;SDS011;12012;51.998;7.614;2023-04-01T02:26:12;5.47;;;4.00;;
23670;SDS011;12012;51.998;7.614;2023-04-01T02:28:39;6.38;;;5.00;;
23670;SDS011;12012;51.998;7.614;2023-04-01T02:31:06;6.75;;;4.72;;
23670;SDS011;12012;51.998;7.614;2023-04-01T02:33:35;6.30;;;4.85;;
23670;SDS011;12012;51.998;7.614;2023-04-01T02:36:03;6.68;;;4.95;;
23670;SDS011;12012;51.998;7.614;2023-04-01T02:38:30;7.38;;;4.70;;
23670;SDS011;12012;51.998;7.614;2023-04-01T02:40:56;6.75;;;4.45;;
23670;SDS011;12012;51.998;7.614;2023-04-01T02:43:24;8.15;;;4.65;;
23670;SDS011;12012;51.998;7.614;2023-04-01T02:45:49;5.45;;;4.25;;
23670;SDS011;12012;51.998;7.614;2023-04-01T02:48:15;6.80;;;4.20;;
23670;SDS011;12012;51.998;7.614;2023-04-01T02:50:41;4.90;;;4.03;;
23670;SDS011;12012;51.998;7.614;2023-04-01T02:53:06;5.53;;;3.95;;
23670;SDS011;12012;51.998;7.614;2023-04-01T02:55:32;7.63;;;4.50;;
23670;SDS011;12012;51.998;7.614;2023-04-01T02:57:58;6.60;;;4.45;;
23670;SDS011;12012;51.998;7.614;2023-04-01T03:00:24;10.98;;;4.25;;
23670;SDS011;12012;51.998;7.614;2023-04-01T03:02:51;5.25;;;3.78;;
23670;SDS011;12012;51.998;7.614;2023-04-01T03:05:17;3.72;;;3.38;;
23670;SDS011;12012;51.998;7.614;2023-04-01T03:07:43;4.90;;;3.70;;
23670;SDS011;12012;51.998;7.614;2023-04-01T03:10:09;4.95;;;3.60;;
23670;SDS011;12012;51.998;7.614;2023-04-01T03:12:35;4.90;;;3.60;;
23670;SDS011;12012;51.998;7.614;2023-04-01T03:15:00;4.07;;;3.67;;
23670;SDS011;12012;51.998;7.614;2023-04-01T03:17:26;6.60;;;3.50;;
23670;SDS011;12012;51.998;7.614;2023-04-01T03:19:51;5.68;;;3.42;;
23670;SDS011;12012;51.998;7.614;2023-04-01T03:22:17;5.88;;;3.70;;
23670;SDS011;12012;51.998;7.614;2023-04-01T03:24:45;6.47;;;3.90;;
23670;SDS011;12012;51.998;7.614;2023-04-01T03:27:12;6.07;;;4.00;;
23670;SDS011;12012;51.998;7.614;2023-04-01T03:29:37;5.28;;;3.60;;
23670;SDS011;12012;51.998;7.614;2023-04-01T03:32:03;5.13;;;3.33;;
23670;SDS011;12012;51.998;7.614;2023-04-01T03:34:29;5.78;;;3.85;;
23670;SDS011;12012;51.998;7.614;2023-04-01T03:36:55;3.80;;;3.50;;
23670;SDS011;12012;51.998;7.614;2023-04-01T03:39:20;4.60;;;3.80;;
23670;SDS011;12012;51.998;7.614;2023-04-01T03:41:46;4.28;;;3.88;;
23670;SDS011;12012;51.998;7.614;2023-04-01T03:44:12;6.03;;;4.55;;
23670;SDS011;12012;51.998;7.614;2023-04-01T03:46:38;4.28;;;3.85;;
23670;SDS011;12012;51.998;7.614;2023-04-01T03:49:06;4.65;;;3.70;;
23670;SDS011;12012;51.998;7.614;2023-04-01T03:51:36;3.63;;;3.33;;
23670;SDS011;12012;51.998;7.614;2023-04-01T03:54:10;5.65;;;4.50;;
23670;SDS011;12012;51.998;7.614;2023-04-01T03:56:36;6.68;;;5.07;;
23670;SDS011;12012;51.998;7.614;2023-04-01T03:59:03;6.15;;;5.38;;
23670;SDS011;12012;51.998;7.614;2023-04-01T04:01:30;5.40;;;4.90;;
23670;SDS011;12012;51.998;7.614;2023-04-01T04:03:56;7.65;;;5.78;;
23670;SDS011;12012;51.998;7.614;2023-04-01T04:06:22;8.27;;;5.78;;
23670;SDS011;12012;51.998;7.614;2023-04-01T04:08:49;5.95;;;5.38;;
23670;SDS011;12012;51.998;7.614;2023-04-01T04:11:14;6.97;;;6.10;;
23670;SDS011;12012;51.998;7.614;2023-04-01T04:13:40;6.88;;;5.50;;
23670;SDS011;12012;51.998;7.614;2023-04-01T04:16:07;8.18;;;6.85;;
23670;SDS011;12012;51.998;7.614;2023-04-01T04:18:33;9.02;;;6.07;;
23670;SDS011;12012;51.998;7.614;2023-04-01T04:20:59;9.40;;;6.70;;
23670;SDS011;12012;51.998;7.614;2023-04-01T04:23:24;8.95;;;7.22;;
23670;SDS011;12012;51.998;7.614;2023-04-01T04:25:57;9.85;;;7.93;;
23670;SDS011;12012;51.998;7.614;2023-04-01T04:28:27;10.52;;;7.43;;
23670;SDS011;12012;51.998;7.614;2023-04-01T04:30:54;8.85;;;7.68;;
23670;SDS011;12012;51.998;7.614;2023-04-01T04:33:21;9.95;;;7.72;;
23670;SDS011;12012;51.998;7.614;2023-04-01T04:35:47;9.25;;;7.28;;
23670;SDS011;12012;51.998;7.614;2023-04-01T04:38:13;8.43;;;6.75;;
23670;SDS011;12012;51.998;7.614;2023-04-01T04:40:40;9.43;;;7.82;;
23670;SDS011;12012;51.998;7.614;2023-04-01T04:43:06;10.50;;;7.75;;
23670;SDS011;12012;51.998;7.614;2023-04-01T04:45:32;9.00;;;8.10;;
23670;SDS011;12012;51.998;7.614;2023-04-01T04:47:58;12.00;;;8.43;;
23670;SDS011;12012;51.998;7.614;2023-04-01T04:50:23;9.77;;;7.72;;
23670;SDS011;12012;51.998;7.614;2023-04-01T04:52:50;8.55;;;7.18;;
23670;SDS011;12012;51.998;7.614;2023-04-01T04:55:15;8.65;;;7.22;;
23670;SDS011;12012;51.998;7.614;2023-04-01T04:57:41;11.90;;;7.78;;
23670;SDS011;12012;51.998;7.614;2023-04-01T05:00:07;13.70;;;8.15;;
23670;SDS011;12012;51.998;7.614;2023-04-01T05:02:34;9.80;;;8.32;;
23670;SDS011;12012;51.998;7.614;2023-04-01T05:05:00;8.82;;;7.88;;
23670;SDS011;12012;51.998;7.614;2023-04-01T05:07:26;8.48;;;6.63;;
23670;SDS011;12012;51.998;7.614;2023-04-01T05:09:51;9.32;;;7.25;;
23670;SDS011;12012;51.998;7.614;2023-04-01T05:12:17;10.48;;;7.80;;
23670;SDS011;12012;51.998;7.614;2023-04-01T05:14:43;12.68;;;8.35;;
23670;SDS011;12012;51.998;7.614;2023-04-01T05:17:09;9.27;;;7.82;;
23670;SDS011;12012;51.998;7.614;2023-04-01T05:19:35;10.18;;;7.70;;
23670;SDS011;12012;51.998;7.614;2023-04-01T05:22:01;9.60;;;7.40;;
23670;SDS011;12012;51.998;7.614;2023-04-01T05:24:26;9.00;;;7.50;;
23670;SDS011;12012;51.998;7.614;2023-04-01T05:26:52;8.05;;;7.03;;
23670;SDS011;12012;51.998;7.614;2023-04-01T05:29:17;9.65;;;7.32;;
23670;SDS011;12012;51.998;7.614;2023-04-01T05:31:43;7.45;;;6.32;;
23670;SDS011;12012;51.998;7.614;2023-04-01T05:34:09;9.18;;;7.20;;
23670;SDS011;12012;51.998;7.614;2023-04-01T05:36:35;8.27;;;7.05;;
23670;SDS011;12012;51.998;7.614;2023-04-01T05:39:01;6.90;;;5.95;;
23670;SDS011;12012;51.998;7.614;2023-04-01T05:41:27;7.80;;;6.43;;
23670;SDS011;12012;51.998;7.614;2023-04-01T05:43:52;9.43;;;6.78;;
23670;SDS011;12012;51.998;7.614;2023-04-01T05:46:18;7.95;;;6.13;;
23670;SDS011;12012;51.998;7.614;2023-04-01T05:48:44;9.40;;;8.07;;
23670;SDS011;12012;51.998;7.614;2023-04-01T05:51:13;10.77;;;7.53;;
23670;SDS011;12012;51.998;7.614;2023-04-01T05:53:39;7.07;;;6.05;;
23670;SDS011;12012;51.998;7.614;2023-04-01T05:56:06;8.45;;;7.35;;
23670;SDS011;12012;51.998;7.614;2023-04-01T05:58:34;7.38;;;6.68;;
23670;SDS011;12012;51.998;7.614;2023-04-01T06:01:01;10.48;;;8.07;;
23670;SDS011;12012;51.998;7.614;2023-04-01T06:03:31;10.43;;;7.13;;
23670;SDS011;12012;51.998;7.614;2023-04-01T06:05:57;9.38;;;7.97;;
23670;SDS011;12012;51.998;7.614;2023-04-01T06:08:23;9.60;;;8.52;;
23670;SDS011;12012;51.998;7.614;2023-04-01T06:10:55;8.70;;;7.60;;
23670;SDS011;12012;51.998;7.614;2023-04-01T06:16:44;8.90;;;7.30;;
23670;SDS011;12012;51.998;7.614;2023-04-01T06:27:50;11.02;;;8.52;;
23670;SDS011;12012;51.998;7.614;2023-04-01T06:44:05;11.25;;;9.93;;
23670;SDS011;12012;51.998;7.614;2023-04-01T06:49:24;12.73;;;11.13;;
23670;SDS011;12012;51.998;7.614;2023-04-01T06:54:36;10.68;;;9.45;;
23670;SDS011;12012;51.998;7.614;2023-04-01T07:00:12;13.23;;;9.52;;
23670;SDS011;12012;51.998;7.614;2023-04-01T07:02:50;11.73;;;10.05;;
23670;SDS011;12012;51.998;7.614;2023-04-01T07:05:32;12.07;;;10.25;;
23670;SDS011;12012;51.998;7.614;2023-04-01T07:08:01;10.90;;;9.80;;
23670;SDS011;12012;51.998;7.614;2023-04-01T07:10:42;11.00;;;9.88;;
23670;SDS011;12012;51.998;7.614;2023-04-01T07:13:16;13.25;;;11.57;;
23670;SDS011;12012;51.998;7.614;2023-04-01T07:19:08;12.15;;;10.93;;
23670;SDS011;12012;51.998;7.614;2023-04-01T07:21:41;9.38;;;8.45;;
23670;SDS011;12012;51.998;7.614;2023-04-01T07:24:15;11.52;;;9.55;;
23670;SDS011;12012;51.998;7.614;2023-04-01T07:26:47;11.85;;;9.85;;
23670;SDS011;12012;51.998;7.614;2023-04-01T07:29:17;11.30;;;10.15;;
23670;SDS011;12012;51.998;7.614;2023-04-01T07:31:45;9.82;;;8.90;;
23670;SDS011;12012;51.998;7.614;2023-04-01T07:34:23;10.10;;;9.02;;
23670;SDS011;12012;51.998;7.614;2023-04-01T07:36:58;9.32;;;8.45;;
23670;SDS011;12012;51.998;7.614;2023-04-01T07:50:50;8.30;;;7.43;;
23670;SDS011;12012;51.998;7.614;2023-04-01T07:53:31;7.93;;;7.18;;
23670;SDS011;12012;51.998;7.614;2023-04-01T07:56:19;7.90;;;7.18;;
23670;SDS011;12012;51.998;7.614;2023-04-01T08:01:45;6.88;;;6.28;;
23670;SDS011;12012;51.998;7.614;2023-04-01T08:09:42;7.95;;;7.25;;
23670;SDS011;12012;51.998;7.614;2023-04-01T08:15:21;7.03;;;6.43;;
23670;SDS011;12012;51.998;7.614;2023-04-01T08:23:23;5.70;;;5.20;;
23670;SDS011;12012;51.998;7.614;2023-04-01T08:28:43;30.52;;;8.93;;
23670;SDS011;12012;51.998;7.614;2023-04-01T08:31:34;25.23;;;7.85;;
23670;SDS011;12012;51.998;7.614;2023-04-01T08:33:57;11.15;;;6.60;;
23670;SDS011;12012;51.998;7.614;2023-04-01T08:36:25;9.30;;;6.50;;
23670;SDS011;12012;51.998;7.614;2023-04-01T08:39:08;7.43;;;6.72;;
23670;SDS011;12012;51.998;7.614;2023-04-01T08:52:56;5.97;;;5.25;;
23670;SDS011;12012;51.998;7.614;2023-04-01T09:14:26;4.78;;;4.38;;
23670;SDS011;12012;51.998;7.614;2023-04-01T09:20:08;5.20;;;4.80;;
23670;SDS011;12012;51.998;7.614;2023-04-01T09:27:56;4.57;;;4.18;;
23670;SDS011;12012;51.998;7.614;2023-04-01T09:38:51;5.60;;;5.13;;
23670;SDS011;12012;51.998;7.614;2023-04-01T10:09:45;5.10;;;4.70;;
23670;SDS011;12012;51.998;7.614;2023-04-01T10:12:23;4.70;;;4.30;;
23670;SDS011;12012;51.998;7.614;2023-04-01T10:34:46;4.20;;;3.80;;
23670;SDS011;12012;51.998;7.614;2023-04-01T10:40:30;5.50;;;5.10;;
23670;SDS011;12012;51.998;7.614;2023-04-01T10:43:11;4.60;;;4.28;;
23670;SDS011;12012;51.998;7.614;2023-04-01T10:54:43;4.43;;;4.10;;
23670;SDS011;12012;51.998;7.614;2023-04-01T11:05:53;4.07;;;3.67;;
23670;SDS011;12012;51.998;7.614;2023-04-01T11:20:18;3.40;;;2.92;;
23670;SDS011;12012;51.998;7.614;2023-04-01T11:34:30;5.43;;;4.90;;
23670;SDS011;12012;51.998;7.614;2023-04-01T11:37:46;5.55;;;5.10;;
23670;SDS011;12012;51.998;7.614;2023-04-01T11:45:59;5.55;;;4.43;;
23670;SDS011;12012;51.998;7.614;2023-04-01T11:51:44;6.03;;;3.80;;
23670;SDS011;12012;51.998;7.614;2023-04-01T12:06:02;4.53;;;4.18;;
23670;SDS011;12012;51.998;7.614;2023-04-01T12:08:52;4.13;;;3.83;;
23670;SDS011;12012;51.998;7.614;2023-04-01T12:11:33;5.85;;;4.57;;
23670;SDS011;12012;51.998;7.614;2023-04-01T12:14:11;4.50;;;4.10;;
23670;SDS011;12012;51.998;7.614;2023-04-01T12:16:55;4.90;;;4.53;;
23670;SDS011;12012;51.998;7.614;2023-04-01T12:43:53;3.50;;;3.20;;
23670;SDS011;12012;51.998;7.614;2023-04-01T12:46:51;2.88;;;2.67;;
23670;SDS011;12012;51.998;7.614;2023-04-01T13:00:57;2.60;;;2.40;;
23670;SDS011;12012;51.998;7.614;2023-04-01T13:12:18;1.65;;;1.55;;
23670;SDS011;12012;51.998;7.614;2023-04-01T13:18:03;1.88;;;1.77;;
23670;SDS011;12012;51.998;7.614;2023-04-01T13:26:30;2.20;;;2.00;;
23670;SDS011;12012;51.998;7.614;2023-04-01T13:29:16;2.97;;;2.20;;
23670;SDS011;12012;51.998;7.614;2023-04-01T13:32:47;2.42;;;2.30;;
23670;SDS011;12012;51.998;7.614;2023-04-01T13:35:00;2.60;;;2.40;;
23670;SDS011;12012;51.998;7.614;2023-04-01T13:40:14;2.53;;;2.33;;
23670;SDS011;12012;51.998;7.614;2023-04-01T13:42:57;2.17;;;2.00;;
23670;SDS011;12012;51.998;7.614;2023-04-01T13:48:18;2.03;;;1.90;;
23670;SDS011;12012;51.998;7.614;2023-04-01T14:06:57;1.73;;;1.60;;
23670;SDS011;12012;51.998;7.614;2023-04-01T14:20:38;2.53;;;1.42;;
23670;SDS011;12012;51.998;7.614;2023-04-01T14:26:30;1.70;;;1.60;;
23670;SDS011;12012;51.998;7.614;2023-04-01T14:31:52;1.50;;;1.40;;
23670;SDS011;12012;51.998;7.614;2023-04-01T14:34:32;1.55;;;1.45;;
23670;SDS011;12012;51.998;7.614;2023-04-01T14:42:50;2.13;;;2.03;;
23670;SDS011;12012;51.998;7.614;2023-04-01T14:50:55;2.92;;;2.60;;
23670;SDS011;12012;51.998;7.614;2023-04-01T14:53:29;4.82;;;4.43;;
23670;SDS011;12012;51.998;7.614;2023-04-01T14:55:59;5.93;;;5.43;;
23670;SDS011;12012;51.998;7.614;2023-04-01T15:01:30;6.93;;;6.32;;
23670;SDS011;12012;51.998;7.614;2023-04-01T15:14:58;9.90;;;9.02;;
23670;SDS011;12012;51.998;7.614;2023-04-01T15:23:02;11.27;;;10.18;;
23670;SDS011;12012;51.998;7.614;2023-04-01T15:28:28;10.18;;;9.10;;
23670;SDS011;12012;51.998;7.614;2023-04-01T15:32:02;9.10;;;8.20;;
23670;SDS011;12012;51.998;7.614;2023-04-01T15:34:06;8.52;;;7.72;;
23670;SDS011;12012;51.998;7.614;2023-04-01T15:36:49;7.78;;;7.07;;
23670;SDS011;12012;51.998;7.614;2023-04-01T15:50:45;4.50;;;4.10;;
23670;SDS011;12012;51.998;7.614;2023-04-01T15:54:04;5.75;;;4.65;;
23670;SDS011;12012;51.998;7.614;2023-04-01T15:56:27;4.90;;;4.10;;
23670;SDS011;12012;51.998;7.614;2023-04-01T16:01:51;4.15;;;3.70;;
23670;SDS011;12012;51.998;7.614;2023-04-01T16:15:57;4.10;;;3.03;;
23670;SDS011;12012;51.998;7.614;2023-04-01T16:18:40;3.42;;;2.75;;
23670;SDS011;12012;51.998;7.614;2023-04-01T16:21:33;3.63;;;2.22;;
23670;SDS011;12012;51.998;7.614;2023-04-01T16:24:12;3.00;;;2.67;;
23670;SDS011;12012;51.998;7.614;2023-04-01T16:29:28;2.88;;;2.67;;
23670;SDS011;12012;51.998;7.614;2023-04-01T16:32:21;2.55;;;2.33;;
23670;SDS011;12012;51.998;7.614;2023-04-01T16:34:55;2.83;;;2.20;;
23670;SDS011;12012;51.998;7.614;2023-04-01T16:37:27;2.95;;;2.28;;
23670;SDS011;12012;51.998;7.614;2023-04-01T16:40:16;3.45;;;2.50;;
23670;SDS011;12012;51.998;7.614;2023-04-01T16:46:11;3.80;;;2.70;;
23670;SDS011;12012;51.998;7.614;2023-04-01T16:54:06;1.98;;;1.88;;
23670;SDS011;12012;51.998;7.614;2023-04-01T16:56:43;2.28;;;2.08;;
23670;SDS011;12012;51.998;7.614;2023-04-01T16:59:16;3.17;;;2.38;;
23670;SDS011;12012;51.998;7.614;2023-04-01T17:06:45;1.50;;;1.40;;
23670;SDS011;12012;51.998;7.614;2023-04-01T17:12:25;2.05;;;1.70;;
23670;SDS011;12012;51.998;7.614;2023-04-01T17:17:58;2.45;;;1.85;;
23670;SDS011;12012;51.998;7.614;2023-04-01T17:20:39;1.70;;;1.52;;
23670;SDS011;12012;51.998;7.614;2023-04-01T17:38:02;1.38;;;1.27;;
23670;SDS011;12012;51.998;7.614;2023-04-01T17:52:03;2.65;;;1.52;;
23670;SDS011;12012;51.998;7.614;2023-04-01T18:21:56;1.60;;;1.50;;
23670;SDS011;12012;51.998;7.614;2023-04-01T18:24:49;1.63;;;1.40;;
23670;SDS011;12012;51.998;7.614;2023-04-01T18:27:38;3.10;;;1.80;;
23670;SDS011;12012;51.998;7.614;2023-04-01T18:32:51;0.90;;;0.90;;
23670;SDS011;12012;51.998;7.614;2023-04-01T18:38:16;1.30;;;1.20;;
23670;SDS011;12012;51.998;7.614;2023-04-01T18:54:26;1.20;;;1.20;;
23670;SDS011;12012;51.998;7.614;2023-04-01T18:57:16;1.15;;;1.00;;
23670;SDS011;12012;51.998;7.614;2023-04-01T19:02:27;2.80;;;1.20;;
23670;SDS011;12012;51.998;7.614;2023-04-01T19:10:12;1.80;;;1.10;;
23670;SDS011;12012;51.998;7.614;2023-04-01T19:15:21;0.90;;;0.90;;
23670;SDS011;12012;51.998;7.614;2023-04-01T19:20:29;1.63;;;1.52;;
23670;SDS011;12012;51.998;7.614;2023-04-01T19:23:14;2.10;;;1.90;;
23670;SDS011;12012;51.998;7.614;2023-04-01T19:25:49;2.08;;;1.92;;
23670;SDS011;12012;51.998;7.614;2023-04-01T19:31:16;2.00;;;1.80;;
23670;SDS011;12012;51.998;7.614;2023-04-01T19:36:33;2.38;;;1.85;;
23670;SDS011;12012;51.998;7.614;2023-04-01T19:39:33;2.30;;;2.10;;
23670;SDS011;12012;51.998;7.614;2023-04-01T19:42:30;3.63;;;2.28;;
23670;SDS011;12012;51.998;7.614;2023-04-01T19:45:07;2.45;;;2.25;;
23670;SDS011;12012;51.998;7.614;2023-04-01T19:53:10;2.95;;;2.50;;
23670;SDS011;12012;51.998;7.614;2023-04-01T20:01:10;2.20;;;2.00;;
23670;SDS011;12012;51.998;7.614;2023-04-01T20:04:05;2.70;;;2.45;;
23670;SDS011;12012;51.998;7.614;2023-04-01T20:14:43;2.03;;;1.92;;
23670;SDS011;12012;51.998;7.614;2023-04-01T20:24:53;2.30;;;2.13;;
23670;SDS011;12012;51.998;7.614;2023-04-01T20:27:26;1.80;;;1.70;;
23670;SDS011;12012;51.998;7.614;2023-04-01T20:32:26;2.00;;;1.90;;
23670;SDS011;12012;51.998;7.614;2023-04-01T20:35:08;2.08;;;1.98;;
23670;SDS011;12012;51.998;7.614;2023-04-01T20:41:06;2.80;;;2.60;;
23670;SDS011;12012;51.998;7.614;2023-04-01T20:43:50;2.45;;;2.25;;
23670;SDS011;12012;51.998;7.614;2023-04-01T20:46:23;2.78;;;2.20;;
23670;SDS011;12012;51.998;7.614;2023-04-01T20:51:39;2.60;;;2.40;;
23670;SDS011;12012;51.998;7.614;2023-04-01T21:03:05;2.70;;;2.33;;
23670;SDS011;12012;51.998;7.614;2023-04-01T21:11:10;3.27;;;2.30;;
23670;SDS011;12012;51.998;7.614;2023-04-01T21:22:58;2.22;;;2.10;;
23670;SDS011;12012;51.998;7.614;2023-04-01T21:25:45;2.40;;;2.20;;
23670;SDS011;12012;51.998;7.614;2023-04-01T21:37:09;2.28;;;2.08;;
23670;SDS011;12012;51.998;7.614;2023-04-01T21:42:19;2.47;;;2.08;;
23670;SDS011;12012;51.998;7.614;2023-04-01T21:47:44;2.15;;;1.92;;
23670;SDS011;12012;51.998;7.614;2023-04-01T21:56:24;2.15;;;2.00;;
23670;SDS011;12012;51.998;7.614;2023-04-01T22:04:59;2.00;;;1.80;;
23670;SDS011;12012;51.998;7.614;2023-04-01T22:10:35;3.00;;;2.00;;
23670;SDS011;12012;51.998;7.614;2023-04-01T22:13:14;2.05;;;1.83;;
23670;SDS011;12012;51.998;7.614;2023-04-01T22:18:33;1.90;;;1.80;;
23670;SDS011;12012;51.998;7.614;2023-04-01T22:21:07;1.95;;;1.85;;
23670;SDS011;12012;51.998;7.614;2023-04-01T22:23:46;2.30;;;2.10;;
23670;SDS011;12012;51.998;7.614;2023-04-01T22:26:37;3.47;;;1.92;;
23670;SDS011;12012;51.998;7.614;2023-04-01T22:32:11;2.20;;;2.00;;
23670;SDS011;12012;51.998;7.614;2023-04-01T22:34:49;2.30;;;2.03;;
23670;SDS011;12012;51.998;7.614;2023-04-01T22:43:03;5.05;;;2.47;;
23670;SDS011;12012;51.998;7.614;2023-04-01T22:45:39;3.88;;;2.30;;
23670;SDS011;12012;51.998;7.614;2023-04-01T22:48:40;2.97;;;2.20;;
23670;SDS011;12012;51.998;7.614;2023-04-01T22:51:21;2.97;;;2.60;;
23670;SDS011;12012;51.998;7.614;2023-04-01T22:59:34;2.67;;;2.33;;
23670;SDS011;12012;51.998;7.614;2023-04-01T23:02:12;4.18;;;2.58;;
23670;SDS011;12012;51.998;7.614;2023-04-01T23:04:42;2.90;;;2.55;;
23670;SDS011;12012;51.998;7.614;2023-04-01T23:07:24;3.65;;;2.58;;
23670;SDS011;12012;51.998;7.614;2023-04-01T23:09:56;3.10;;;2.80;;
23670;SDS011;12012;51.998;7.614;2023-04-01T23:12:25;5.53;;;3.00;;
23670;SDS011;12012;51.998;7.614;2023-04-01T23:14:58;3.60;;;3.10;;
23670;SDS011;12012;51.998;7.614;2023-04-01T23:30:57;4.38;;;3.20;;
23670;SDS011;12012;51.998;7.614;2023-04-01T23:33:23;3.25;;;2.95;;
23670;SDS011;12012;51.998;7.614;2023-04-01T23:35:58;3.60;;;2.85;;
23670;SDS011;12012;51.998;7.614;2023-04-01T23:38:30;4.15;;;3.38;;
23670;SDS011;12012;51.998;7.614;2023-04-01T23:40:58;3.63;;;3.20;;
23670;SDS011;12012;51.998;7.614;2023-04-01T23:43:31;4.60;;;3.47;;
23670;SDS011;12012;51.998;7.614;2023-04-01T23:46:02;7.40;;;3.40;;
23670;SDS011;12012;51.998;7.614;2023-04-01T23:48:33;4.90;;;3.40;;
23670;SDS011;12012;51.998;7.614;2023-04-01T23:53:44;4.55;;;3.28;;
23670;SDS011;12012;51.998;7.614;2023-04-01T23:56:12;4.22;;;3.35;;
23670;SDS011;12012;51.998;7.614;2023-04-01T23:58:44;5.15;;;3.30;;
